sensor_id;sensor_type;location;lat;lon;timestamp;pressure;altitude;pressure_sealevel;temperature;humidity
23473;BME280;11909;52.516;13.564;2022-09-09T00:01:41;100412.16;;;14.91;100.00
23473;BME280;11909;52.516;13.564;2022-09-09T00:04:15;100414.44;;;14.89;100.00
23473;BME280;11909;52.516;13.564;2022-09-09T00:06:55;100407.88;;;14.85;100.00
23473;BME280;11909;52.516;13.564;2022-09-09T00:09:27;100409.22;;;14.88;100.00
23473;BME280;11909;52.516;13.564;2022-09-09T00:11:58;100409.03;;;14.84;100.00
23473;BME280;11909;52.516;13.564;2022-09-09T00:14:37;100412.41;;;14.81;100.00
23473;BME280;11909;52.516;13.564;2022-09-09T00:17:09;100414.38;;;14.81;100.00
23473;BME280;11909;52.516;13.564;2022-09-09T00:19:41;100413.56;;;14.80;100.00
23473;BME280;11909;52.516;13.564;2022-09-09T00:22:16;100411.28;;;14.82;100.00
23473;BME280;11909;52.516;13.564;2022-09-09T00:24:44;100408.84;;;14.81;100.00
23473;BME280;11909;52.516;13.564;2022-09-09T00:27:17;100415.03;;;14.77;100.00
23473;BME280;11909;52.516;13.564;2022-09-09T00:29:52;100409.81;;;14.76;100.00
23473;BME280;11909;52.516;13.564;2022-09-09T00:32:19;100404.91;;;14.73;100.00
23473;BME280;11909;52.516;13.564;2022-09-09T00:34:49;100403.16;;;14.77;100.00
23473;BME280;11909;52.516;13.564;2022-09-09T00:37:18;100401.22;;;14.77;100.00
23473;BME280;11909;52.516;13.564;2022-09-09T00:39:46;100402.16;;;14.73;100.00
23473;BME280;11909;52.516;13.564;2022-09-09T00:42:16;100401.81;;;14.74;100.00
23473;BME280;11909;52.516;13.564;2022-09-09T00:44:53;100397.25;;;14.70;100.00
23473;BME280;11909;52.516;13.564;2022-09-09T00:47:37;100402.06;;;14.64;100.00
23473;BME280;11909;52.516;13.564;2022-09-09T00:50:15;100394.91;;;14.63;100.00
23473;BME280;11909;52.516;13.564;2022-09-09T00:52:53;100401.72;;;14.57;100.00
23473;BME280;11909;52.516;13.564;2022-09-09T00:55:27;100408.88;;;14.58;100.00
23473;BME280;11909;52.516;13.564;2022-09-09T00:57:58;100399.25;;;14.55;100.00
23473;BME280;11909;52.516;13.564;2022-09-09T01:00:27;100408.03;;;14.57;100.00
23473;BME280;11909;52.516;13.564;2022-09-09T01:03:07;100409.66;;;14.58;100.00
23473;BME280;11909;52.516;13.564;2022-09-09T01:05:43;100407.75;;;14.59;100.00
23473;BME280;11909;52.516;13.564;2022-09-09T01:08:22;100411.75;;;14.53;100.00
23473;BME280;11909;52.516;13.564;2022-09-09T01:10:54;100409.31;;;14.51;100.00
23473;BME280;11909;52.516;13.564;2022-09-09T01:13:24;100410.25;;;14.46;100.00
23473;BME280;11909;52.516;13.564;2022-09-09T01:15:51;100414.47;;;14.44;100.00
23473;BME280;11909;52.516;13.564;2022-09-09T01:18:21;100419.34;;;14.47;100.00
23473;BME280;11909;52.516;13.564;2022-09-09T01:20:53;100418.84;;;14.45;100.00
23473;BME280;11909;52.516;13.564;2022-09-09T01:23:34;100419.16;;;14.43;100.00
23473;BME280;11909;52.516;13.564;2022-09-09T01:26:12;100420.94;;;14.39;100.00
23473;BME280;11909;52.516;13.564;2022-09-09T01:28:43;100420.09;;;14.39;100.00
23473;BME280;11909;52.516;13.564;2022-09-09T01:31:14;100422.34;;;14.37;100.00
23473;BME280;11909;52.516;13.564;2022-09-09T01:33:41;100416.03;;;14.36;100.00
23473;BME280;11909;52.516;13.564;2022-09-09T01:36:10;100413.09;;;14.32;100.00
23473;BME280;11909;52.516;13.564;2022-09-09T01:38:39;100414.00;;;14.28;100.00
23473;BME280;11909;52.516;13.564;2022-09-09T01:41:06;100414.00;;;14.28;100.00
23473;BME280;11909;52.516;13.564;2022-09-09T01:43:34;100422.28;;;14.28;100.00
23473;BME280;11909;52.516;13.564;2022-09-09T01:46:01;100420.66;;;14.27;100.00
23473;BME280;11909;52.516;13.564;2022-09-09T01:48:28;100416.09;;;14.22;100.00
23473;BME280;11909;52.516;13.564;2022-09-09T01:50:55;100413.34;;;14.22;100.00
23473;BME280;11909;52.516;13.564;2022-09-09T01:53:22;100414.47;;;14.21;100.00
23473;BME280;11909;52.516;13.564;2022-09-09T01:55:56;100406.88;;;14.27;100.00
23473;BME280;11909;52.516;13.564;2022-09-09T01:58:32;100401.69;;;14.25;100.00
23473;BME280;11909;52.516;13.564;2022-09-09T02:01:07;100400.34;;;14.23;100.00
23473;BME280;11909;52.516;13.564;2022-09-09T02:03:38;100404.03;;;14.18;100.00
23473;BME280;11909;52.516;13.564;2022-09-09T02:06:19;100407.63;;;14.18;100.00
23473;BME280;11909;52.516;13.564;2022-09-09T02:08:49;100411.72;;;14.21;100.00
23473;BME280;11909;52.516;13.564;2022-09-09T02:11:18;100417.84;;;14.18;100.00
23473;BME280;11909;52.516;13.564;2022-09-09T02:13:47;100419.78;;;14.17;100.00
23473;BME280;11909;52.516;13.564;2022-09-09T02:16:21;100421.44;;;14.18;100.00
23473;BME280;11909;52.516;13.564;2022-09-09T02:18:52;100419.50;;;14.19;100.00
23473;BME280;11909;52.516;13.564;2022-09-09T02:21:20;100423.97;;;14.15;100.00
23473;BME280;11909;52.516;13.564;2022-09-09T02:23:50;100420.56;;;14.09;100.00
23473;BME280;11909;52.516;13.564;2022-09-09T02:26:19;100417.09;;;14.03;100.00
23473;BME280;11909;52.516;13.564;2022-09-09T02:28:50;100420.66;;;14.04;100.00
23473;BME280;11909;52.516;13.564;2022-09-09T02:31:22;100420.06;;;14.07;100.00
23473;BME280;11909;52.516;13.564;2022-09-09T02:33:52;100418.28;;;14.11;100.00
23473;BME280;11909;52.516;13.564;2022-09-09T02:36:22;100417.28;;;14.07;100.00
23473;BME280;11909;52.516;13.564;2022-09-09T02:38:50;100413.06;;;14.10;100.00
23473;BME280;11909;52.516;13.564;2022-09-09T02:41:20;100412.88;;;14.06;100.00
23473;BME280;11909;52.516;13.564;2022-09-09T02:43:49;100421.78;;;14.03;100.00
23473;BME280;11909;52.516;13.564;2022-09-09T02:46:27;100416.59;;;14.01;100.00
23473;BME280;11909;52.516;13.564;2022-09-09T02:49:00;100427.44;;;13.98;100.00
23473;BME280;11909;52.516;13.564;2022-09-09T02:51:33;100427.94;;;14.00;100.00
23473;BME280;11909;52.516;13.564;2022-09-09T02:54:10;100418.34;;;13.97;100.00
23473;BME280;11909;52.516;13.564;2022-09-09T02:56:40;100415.69;;;13.92;100.00
23473;BME280;11909;52.516;13.564;2022-09-09T02:59:09;100406.91;;;13.90;100.00
23473;BME280;11909;52.516;13.564;2022-09-09T03:01:38;100410.28;;;13.87;100.00
23473;BME280;11909;52.516;13.564;2022-09-09T03:04:05;100408.03;;;13.89;100.00
23473;BME280;11909;52.516;13.564;2022-09-09T03:06:31;100415.31;;;13.85;100.00
23473;BME280;11909;52.516;13.564;2022-09-09T03:08:58;100418.19;;;13.80;100.00
23473;BME280;11909;52.516;13.564;2022-09-09T03:11:26;100421.06;;;13.74;100.00
23473;BME280;11909;52.516;13.564;2022-09-09T03:13:53;100422.19;;;13.73;100.00
23473;BME280;11909;52.516;13.564;2022-09-09T03:16:21;100424.13;;;13.73;100.00
23473;BME280;11909;52.516;13.564;2022-09-09T03:18:49;100437.28;;;13.76;100.00
23473;BME280;11909;52.516;13.564;2022-09-09T03:21:15;100436.47;;;13.75;100.00
23473;BME280;11909;52.516;13.564;2022-09-09T03:23:41;100434.53;;;13.76;100.00
23473;BME280;11909;52.516;13.564;2022-09-09T03:26:08;100434.53;;;13.76;100.00
23473;BME280;11909;52.516;13.564;2022-09-09T03:28:35;100439.41;;;13.79;100.00
23473;BME280;11909;52.516;13.564;2022-09-09T03:31:02;100447.00;;;13.73;100.00
23473;BME280;11909;52.516;13.564;2022-09-09T03:33:29;100440.28;;;13.66;100.00
23473;BME280;11909;52.516;13.564;2022-09-09T03:35:57;100442.91;;;13.71;100.00
23473;BME280;11909;52.516;13.564;2022-09-09T03:38:24;100445.34;;;13.72;100.00
23473;BME280;11909;52.516;13.564;2022-09-09T03:40:52;100438.81;;;13.68;100.00
23473;BME280;11909;52.516;13.564;2022-09-09T03:43:20;100437.69;;;13.69;100.00
23473;BME280;11909;52.516;13.564;2022-09-09T03:45:47;100445.97;;;13.69;100.00
23473;BME280;11909;52.516;13.564;2022-09-09T03:48:14;100440.28;;;13.66;100.00
23473;BME280;11909;52.516;13.564;2022-09-09T03:50:44;100435.06;;;13.64;100.00
23473;BME280;11909;52.516;13.564;2022-09-09T03:53:12;100436.19;;;13.63;100.00
23473;BME280;11909;52.516;13.564;2022-09-09T03:55:43;100443.44;;;13.59;100.00
23473;BME280;11909;52.516;13.564;2022-09-09T03:58:11;100443.94;;;13.61;100.00
23473;BME280;11909;52.516;13.564;2022-09-09T04:00:37;100436.59;;;13.56;100.00
23473;BME280;11909;52.516;13.564;2022-09-09T04:03:10;100446.81;;;13.56;100.00
23473;BME280;11909;52.516;13.564;2022-09-09T04:05:36;100439.97;;;13.53;100.00
23473;BME280;11909;52.516;13.564;2022-09-09T04:08:05;100439.69;;;13.55;100.00
23473;BME280;11909;52.516;13.564;2022-09-09T04:10:33;100439.06;;;13.58;100.00
23473;BME280;11909;52.516;13.564;2022-09-09T04:13:01;100439.97;;;13.53;100.00
23473;BME280;11909;52.516;13.564;2022-09-09T04:15:27;100431.53;;;13.50;100.00
23473;BME280;11909;52.516;13.564;2022-09-09T04:17:54;100433.44;;;13.49;100.00
23473;BME280;11909;52.516;13.564;2022-09-09T04:20:20;100437.63;;;13.46;100.00
23473;BME280;11909;52.516;13.564;2022-09-09T04:22:47;100441.84;;;13.44;100.00
23473;BME280;11909;52.516;13.564;2022-09-09T04:25:13;100442.97;;;13.43;100.00
23473;BME280;11909;52.516;13.564;2022-09-09T04:27:41;100444.66;;;13.39;100.00
23473;BME280;11909;52.516;13.564;2022-09-09T04:30:09;100440.88;;;13.34;100.00
23473;BME280;11909;52.516;13.564;2022-09-09T04:32:35;100447.81;;;13.32;100.00
23473;BME280;11909;52.516;13.564;2022-09-09T04:35:02;100451.50;;;13.27;100.00
23473;BME280;11909;52.516;13.564;2022-09-09T04:37:28;100448.44;;;13.29;100.00
23473;BME280;11909;52.516;13.564;2022-09-09T04:39:55;100452.91;;;13.25;100.00
23473;BME280;11909;52.516;13.564;2022-09-09T04:42:21;100459.25;;;13.25;100.00
23473;BME280;11909;52.516;13.564;2022-09-09T04:44:50;100458.97;;;13.27;100.00
23473;BME280;11909;52.516;13.564;2022-09-09T04:47:16;100460.59;;;13.28;100.00
23473;BME280;11909;52.516;13.564;2022-09-09T04:49:42;100456.22;;;13.27;100.00
23473;BME280;11909;52.516;13.564;2022-09-09T04:52:09;100451.78;;;13.26;100.00
23473;BME280;11909;52.516;13.564;2022-09-09T04:54:35;100455.88;;;13.28;100.00
23473;BME280;11909;52.516;13.564;2022-09-09T04:57:02;100459.03;;;13.36;100.00
23473;BME280;11909;52.516;13.564;2022-09-09T04:59:29;100479.66;;;13.38;100.00
23473;BME280;11909;52.516;13.564;2022-09-09T05:01:56;100473.94;;;13.34;100.00
23473;BME280;11909;52.516;13.564;2022-09-09T05:04:23;100468.84;;;13.42;100.00
23473;BME280;11909;52.516;13.564;2022-09-09T05:06:49;100471.63;;;13.42;100.00
23473;BME280;11909;52.516;13.564;2022-09-09T05:09:16;100473.28;;;13.43;100.00
23473;BME280;11909;52.516;13.564;2022-09-09T05:11:42;100475.72;;;13.44;100.00
23473;BME280;11909;52.516;13.564;2022-09-09T05:14:09;100475.72;;;13.44;100.00
23473;BME280;11909;52.516;13.564;2022-09-09T05:16:36;100473.47;;;13.46;100.00
23473;BME280;11909;52.516;13.564;2022-09-09T05:19:04;100474.78;;;13.49;100.00
23473;BME280;11909;52.516;13.564;2022-09-09T05:21:31;100471.53;;;13.47;100.00
23473;BME280;11909;52.516;13.564;2022-09-09T05:23:58;100475.09;;;13.47;100.00
23473;BME280;11909;52.516;13.564;2022-09-09T05:26:26;100471.75;;;13.51;100.00
23473;BME280;11909;52.516;13.564;2022-09-09T05:28:54;100473.69;;;13.50;100.00
23473;BME280;11909;52.516;13.564;2022-09-09T05:31:21;100481.94;;;13.50;100.00
23473;BME280;11909;52.516;13.564;2022-09-09T05:33:48;100486.03;;;13.53;100.00
23473;BME280;11909;52.516;13.564;2022-09-09T05:36:18;100483.16;;;13.58;100.00
23473;BME280;11909;52.516;13.564;2022-09-09T05:38:45;100476.75;;;13.62;100.00
23473;BME280;11909;52.516;13.564;2022-09-09T05:41:12;100479.50;;;13.62;100.00
23473;BME280;11909;52.516;13.564;2022-09-09T05:43:41;100476.94;;;13.66;100.00
23473;BME280;11909;52.516;13.564;2022-09-09T05:46:10;100470.09;;;13.64;100.00
23473;BME280;11909;52.516;13.564;2022-09-09T05:48:39;100466.72;;;13.67;100.00
23473;BME280;11909;52.516;13.564;2022-09-09T05:51:08;100460.09;;;13.68;100.00
23473;BME280;11909;52.516;13.564;2022-09-09T05:53:36;100475.00;;;13.67;100.00
23473;BME280;11909;52.516;13.564;2022-09-09T05:56:05;100477.13;;;13.70;100.00
23473;BME280;11909;52.516;13.564;2022-09-09T05:58:31;100485.91;;;13.72;100.00
23473;BME280;11909;52.516;13.564;2022-09-09T06:01:02;100492.16;;;13.77;100.00
23473;BME280;11909;52.516;13.564;2022-09-09T06:03:29;100494.28;;;13.81;100.00
23473;BME280;11909;52.516;13.564;2022-09-09T06:05:59;100481.28;;;13.81;100.00
23473;BME280;11909;52.516;13.564;2022-09-09T06:08:26;100481.50;;;13.85;100.00
23473;BME280;11909;52.516;13.564;2022-09-09T06:11:01;100484.84;;;13.96;100.00
23473;BME280;11909;52.516;13.564;2022-09-09T06:13:29;100497.81;;;13.95;100.00
23473;BME280;11909;52.516;13.564;2022-09-09T06:15:55;100499.66;;;14.00;100.00
23473;BME280;11909;52.516;13.564;2022-09-09T06:18:21;100503.34;;;13.95;100.00
23473;BME280;11909;52.516;13.564;2022-09-09T06:20:58;100505.38;;;14.03;100.00
23473;BME280;11909;52.516;13.564;2022-09-09T06:23:26;100498.53;;;14.01;100.00
23473;BME280;11909;52.516;13.564;2022-09-09T06:26:04;100504.56;;;14.03;100.00
23473;BME280;11909;52.516;13.564;2022-09-09T06:28:32;100495.34;;;14.08;100.00
23473;BME280;11909;52.516;13.564;2022-09-09T06:30:58;100505.75;;;14.11;100.00
23473;BME280;11909;52.516;13.564;2022-09-09T06:33:25;100497.19;;;14.12;100.00
23473;BME280;11909;52.516;13.564;2022-09-09T06:35:53;100498.81;;;14.13;100.00
23473;BME280;11909;52.516;13.564;2022-09-09T06:38:22;100505.13;;;14.14;100.00
23473;BME280;11909;52.516;13.564;2022-09-09T06:40:51;100509.63;;;14.24;100.00
23473;BME280;11909;52.516;13.564;2022-09-09T06:43:19;100503.97;;;14.29;100.00
23473;BME280;11909;52.516;13.564;2022-09-09T06:45:52;100507.25;;;14.31;100.00
23473;BME280;11909;52.516;13.564;2022-09-09T06:48:19;100502.91;;;14.39;100.00
23473;BME280;11909;52.516;13.564;2022-09-09T06:50:46;100508.50;;;14.47;100.00
23473;BME280;11909;52.516;13.564;2022-09-09T06:53:15;100516.38;;;14.54;100.00
23473;BME280;11909;52.516;13.564;2022-09-09T06:55:44;100519.00;;;14.59;100.00
23473;BME280;11909;52.516;13.564;2022-09-09T06:58:11;100515.72;;;14.57;100.00
23473;BME280;11909;52.516;13.564;2022-09-09T07:00:39;100515.31;;;14.64;100.00
23473;BME280;11909;52.516;13.564;2022-09-09T07:03:05;100505.59;;;14.67;100.00
23473;BME280;11909;52.516;13.564;2022-09-09T07:05:31;100506.63;;;14.71;100.00
23473;BME280;11909;52.516;13.564;2022-09-09T07:07:58;100516.69;;;14.75;100.00
23473;BME280;11909;52.516;13.564;2022-09-09T07:10:25;100510.88;;;14.77;100.00
23473;BME280;11909;52.516;13.564;2022-09-09T07:12:52;100517.09;;;14.83;100.00
23473;BME280;11909;52.516;13.564;2022-09-09T07:15:18;100510.56;;;14.79;100.00
23473;BME280;11909;52.516;13.564;2022-09-09T07:17:46;100511.38;;;14.79;100.00
23473;BME280;11909;52.516;13.564;2022-09-09T07:20:13;100519.53;;;14.84;100.00
23473;BME280;11909;52.516;13.564;2022-09-09T07:22:40;100518.09;;;14.87;100.00
23473;BME280;11909;52.516;13.564;2022-09-09T07:25:07;100519.09;;;14.91;100.00
23473;BME280;11909;52.516;13.564;2022-09-09T07:27:34;100522.53;;;14.97;100.00
23473;BME280;11909;52.516;13.564;2022-09-09T07:30:00;100520.97;;;15.04;100.00
23473;BME280;11909;52.516;13.564;2022-09-09T07:32:27;100517.88;;;15.06;100.00
23473;BME280;11909;52.516;13.564;2022-09-09T07:34:56;100518.56;;;15.12;100.00
23473;BME280;11909;52.516;13.564;2022-09-09T07:37:23;100520.69;;;15.15;100.00
23473;BME280;11909;52.516;13.564;2022-09-09T07:39:50;100519.75;;;15.19;100.00
23473;BME280;11909;52.516;13.564;2022-09-09T07:42:17;100518.28;;;15.22;100.00
23473;BME280;11909;52.516;13.564;2022-09-09T07:44:44;100516.53;;;15.26;100.00
23473;BME280;11909;52.516;13.564;2022-09-09T07:47:10;100525.31;;;15.28;100.00
23473;BME280;11909;52.516;13.564;2022-09-09T07:49:37;100512.00;;;15.30;100.00
23473;BME280;11909;52.516;13.564;2022-09-09T07:52:05;100521.75;;;15.37;100.00
23473;BME280;11909;52.516;13.564;2022-09-09T07:54:32;100520.81;;;15.41;100.00
23473;BME280;11909;52.516;13.564;2022-09-09T07:56:58;100522.63;;;15.46;100.00
23473;BME280;11909;52.516;13.564;2022-09-09T07:59:24;100524.75;;;15.49;100.00
23473;BME280;11909;52.516;13.564;2022-09-09T08:01:51;100532.59;;;15.65;100.00
23473;BME280;11909;52.516;13.564;2022-09-09T08:04:20;100533.47;;;15.74;98.36
23473;BME280;11909;52.516;13.564;2022-09-09T08:06:48;100536.06;;;15.79;97.97
23473;BME280;11909;52.516;13.564;2022-09-09T08:09:17;100528.28;;;15.81;99.80
23473;BME280;11909;52.516;13.564;2022-09-09T08:11:43;100524.53;;;15.86;100.00
23473;BME280;11909;52.516;13.564;2022-09-09T08:14:11;100530.09;;;15.86;100.00
23473;BME280;11909;52.516;13.564;2022-09-09T08:16:40;100545.78;;;16.08;97.43
23473;BME280;11909;52.516;13.564;2022-09-09T08:19:07;100543.50;;;16.10;96.98
23473;BME280;11909;52.516;13.564;2022-09-09T08:21:36;100539.28;;;16.13;97.63
23473;BME280;11909;52.516;13.564;2022-09-09T08:24:04;100537.66;;;16.12;98.00
23473;BME280;11909;52.516;13.564;2022-09-09T08:26:34;100539.47;;;16.16;98.37
23473;BME280;11909;52.516;13.564;2022-09-09T08:29:03;100541.25;;;16.30;98.82
23473;BME280;11909;52.516;13.564;2022-09-09T08:31:32;100540.59;;;16.33;97.74
23473;BME280;11909;52.516;13.564;2022-09-09T08:34:00;100552.50;;;16.42;96.28
23473;BME280;11909;52.516;13.564;2022-09-09T08:36:29;100548.44;;;16.48;96.11
23473;BME280;11909;52.516;13.564;2022-09-09T08:38:58;100560.81;;;16.60;92.86
23473;BME280;11909;52.516;13.564;2022-09-09T08:41:39;100550.19;;;16.71;91.58
23473;BME280;11909;52.516;13.564;2022-09-09T08:44:14;100545.78;;;16.78;91.32
23473;BME280;11909;52.516;13.564;2022-09-09T08:46:49;100545.97;;;16.73;92.39
23473;BME280;11909;52.516;13.564;2022-09-09T08:49:42;100550.38;;;16.66;92.83
23473;BME280;11909;52.516;13.564;2022-09-09T08:52:18;100552.00;;;16.67;93.26
23473;BME280;11909;52.516;13.564;2022-09-09T08:54:46;100553.81;;;16.71;93.06
23473;BME280;11909;52.516;13.564;2022-09-09T08:57:20;100558.19;;;16.72;93.05
23473;BME280;11909;52.516;13.564;2022-09-09T08:59:52;100549.88;;;16.72;93.79
23473;BME280;11909;52.516;13.564;2022-09-09T09:02:25;100552.66;;;16.72;93.50
23473;BME280;11909;52.516;13.564;2022-09-09T09:05:11;100547.94;;;16.73;93.15
23473;BME280;11909;52.516;13.564;2022-09-09T09:07:48;100555.44;;;16.81;93.05
23473;BME280;11909;52.516;13.564;2022-09-09T09:10:28;100557.88;;;17.00;89.71
23473;BME280;11909;52.516;13.564;2022-09-09T09:12:59;100556.06;;;17.04;89.32
23473;BME280;11909;52.516;13.564;2022-09-09T09:15:31;100557.69;;;17.05;90.55
23473;BME280;11909;52.516;13.564;2022-09-09T09:18:02;100550.19;;;17.06;91.49
23473;BME280;11909;52.516;13.564;2022-09-09T09:20:35;100561.75;;;17.17;88.63
23473;BME280;11909;52.516;13.564;2022-09-09T09:23:13;100562.38;;;17.31;89.26
23473;BME280;11909;52.516;13.564;2022-09-09T09:25:42;100560.34;;;17.49;86.53
23473;BME280;11909;52.516;13.564;2022-09-09T09:28:14;100568.44;;;17.63;85.71
23473;BME280;11909;52.516;13.564;2022-09-09T09:30:47;100560.53;;;17.83;85.83
23473;BME280;11909;52.516;13.564;2022-09-09T09:33:19;100553.88;;;18.05;85.69
23473;BME280;11909;52.516;13.564;2022-09-09T09:35:48;100565.97;;;18.31;81.90
23473;BME280;11909;52.516;13.564;2022-09-09T09:38:17;100570.66;;;18.60;79.59
23473;BME280;11909;52.516;13.564;2022-09-09T09:40:49;100565.97;;;18.73;80.51
23473;BME280;11909;52.516;13.564;2022-09-09T09:43:21;100573.56;;;18.85;79.67
23473;BME280;11909;52.516;13.564;2022-09-09T09:45:50;100565.75;;;19.00;79.86
23473;BME280;11909;52.516;13.564;2022-09-09T09:48:16;100562.78;;;19.17;80.61
23473;BME280;11909;52.516;13.564;2022-09-09T09:50:48;100564.91;;;19.33;76.61
23473;BME280;11909;52.516;13.564;2022-09-09T09:53:20;100561.13;;;19.50;79.76
23473;BME280;11909;52.516;13.564;2022-09-09T09:55:52;100569.50;;;19.62;77.63
23473;BME280;11909;52.516;13.564;2022-09-09T09:58:21;100569.47;;;19.75;78.70
23473;BME280;11909;52.516;13.564;2022-09-09T10:00:48;100578.56;;;19.84;75.69
23473;BME280;11909;52.516;13.564;2022-09-09T10:03:23;100583.44;;;20.00;73.46
23473;BME280;11909;52.516;13.564;2022-09-09T10:05:51;100575.03;;;20.25;74.58
23473;BME280;11909;52.516;13.564;2022-09-09T10:08:18;100575.75;;;20.34;74.05
23473;BME280;11909;52.516;13.564;2022-09-09T10:11:04;100574.31;;;20.40;74.17
23473;BME280;11909;52.516;13.564;2022-09-09T10:13:39;100587.41;;;20.52;70.77
23473;BME280;11909;52.516;13.564;2022-09-09T10:16:24;100583.78;;;20.64;70.58
23473;BME280;11909;52.516;13.564;2022-09-09T10:18:58;100586.13;;;20.62;70.67
23473;BME280;11909;52.516;13.564;2022-09-09T10:21:37;100592.16;;;20.52;68.58
23473;BME280;11909;52.516;13.564;2022-09-09T10:24:28;100578.22;;;20.64;71.83
23473;BME280;11909;52.516;13.564;2022-09-09T10:27:05;100577.34;;;20.76;72.67
23473;BME280;11909;52.516;13.564;2022-09-09T10:30:03;100587.69;;;20.88;69.54
23473;BME280;11909;52.516;13.564;2022-09-09T10:32:41;100582.13;;;21.04;70.36
23473;BME280;11909;52.516;13.564;2022-09-09T10:35:31;100597.00;;;21.08;66.59
23473;BME280;11909;52.516;13.564;2022-09-09T10:38:20;100591.78;;;21.06;68.95
23473;BME280;11909;52.516;13.564;2022-09-09T10:41:10;100601.78;;;21.08;66.29
23473;BME280;11909;52.516;13.564;2022-09-09T10:44:02;100594.59;;;21.23;64.83
23473;BME280;11909;52.516;13.564;2022-09-09T10:46:40;100606.38;;;21.16;64.46
23473;BME280;11909;52.516;13.564;2022-09-09T10:49:19;100601.31;;;21.05;66.74
23473;BME280;11909;52.516;13.564;2022-09-09T10:51:57;100613.22;;;20.90;65.05
23473;BME280;11909;52.516;13.564;2022-09-09T10:54:46;100602.00;;;20.74;67.46
23473;BME280;11909;52.516;13.564;2022-09-09T10:57:26;100598.09;;;20.50;67.55
23473;BME280;11909;52.516;13.564;2022-09-09T10:59:58;100602.19;;;20.40;67.21
23473;BME280;11909;52.516;13.564;2022-09-09T11:02:30;100593.97;;;20.31;68.88
23473;BME280;11909;52.516;13.564;2022-09-09T11:05:02;100589.31;;;20.35;69.05
23473;BME280;11909;52.516;13.564;2022-09-09T11:07:35;100580.53;;;20.62;70.67
23473;BME280;11909;52.516;13.564;2022-09-09T11:10:11;100585.00;;;20.91;67.62
23473;BME280;11909;52.516;13.564;2022-09-09T11:12:43;100590.34;;;21.13;67.07
23473;BME280;11909;52.516;13.564;2022-09-09T11:15:17;100582.66;;;21.38;67.72
23473;BME280;11909;52.516;13.564;2022-09-09T11:17:48;100591.22;;;21.61;66.27
23473;BME280;11909;52.516;13.564;2022-09-09T11:20:17;100594.38;;;21.60;64.18
23473;BME280;11909;52.516;13.564;2022-09-09T11:22:48;100590.88;;;21.63;63.83
23473;BME280;11909;52.516;13.564;2022-09-09T11:25:18;100588.16;;;21.67;65.07
23473;BME280;11909;52.516;13.564;2022-09-09T11:27:56;100593.00;;;21.54;64.24
23473;BME280;11909;52.516;13.564;2022-09-09T11:30:34;100580.50;;;21.47;66.85
23473;BME280;11909;52.516;13.564;2022-09-09T11:33:37;100586.56;;;21.66;65.59
23473;BME280;11909;52.516;13.564;2022-09-09T11:39:24;100598.13;;;22.16;61.66
23473;BME280;11909;52.516;13.564;2022-09-09T11:42:05;100607.22;;;22.29;58.49
23473;BME280;11909;52.516;13.564;2022-09-09T11:44:32;100601.34;;;22.50;59.25
23473;BME280;11909;52.516;13.564;2022-09-09T11:46:59;100597.13;;;22.60;59.60
23473;BME280;11909;52.516;13.564;2022-09-09T11:49:28;100591.63;;;22.63;57.50
23473;BME280;11909;52.516;13.564;2022-09-09T11:51:58;100598.63;;;22.73;59.05
23473;BME280;11909;52.516;13.564;2022-09-09T11:54:29;100593.47;;;22.75;59.19
23473;BME280;11909;52.516;13.564;2022-09-09T11:56:57;100583.44;;;22.55;58.52
23473;BME280;11909;52.516;13.564;2022-09-09T11:59:26;100583.28;;;22.47;57.14
23473;BME280;11909;52.516;13.564;2022-09-09T12:01:55;100585.09;;;22.40;58.46
23473;BME280;11909;52.516;13.564;2022-09-09T12:04:30;100582.13;;;22.48;58.24
23473;BME280;11909;52.516;13.564;2022-09-09T12:07:04;100582.88;;;22.65;57.27
23473;BME280;11909;52.516;13.564;2022-09-09T12:09:43;100575.44;;;22.53;56.22
23473;BME280;11909;52.516;13.564;2022-09-09T12:12:23;100577.88;;;22.39;56.83
23473;BME280;11909;52.516;13.564;2022-09-09T12:14:59;100572.88;;;22.28;58.13
23473;BME280;11909;52.516;13.564;2022-09-09T12:17:28;100559.25;;;22.27;60.14
23473;BME280;11909;52.516;13.564;2022-09-09T12:20:11;100555.19;;;22.24;58.31
23473;BME280;11909;52.516;13.564;2022-09-09T12:25:36;100553.66;;;22.27;59.42
23473;BME280;11909;52.516;13.564;2022-09-09T12:28:11;100545.03;;;22.16;58.48
23473;BME280;11909;52.516;13.564;2022-09-09T12:30:47;100551.13;;;22.02;58.27
23473;BME280;11909;52.516;13.564;2022-09-09T12:33:17;100542.03;;;21.89;58.59
23473;BME280;11909;52.516;13.564;2022-09-09T12:35:47;100547.53;;;21.85;57.87
23473;BME280;11909;52.516;13.564;2022-09-09T12:38:21;100542.13;;;21.92;58.71
23473;BME280;11909;52.516;13.564;2022-09-09T12:40:56;100545.63;;;21.89;57.77
23473;BME280;11909;52.516;13.564;2022-09-09T12:43:24;100537.97;;;21.86;59.38
23473;BME280;11909;52.516;13.564;2022-09-09T12:45:53;100530.47;;;21.90;60.83
23473;BME280;11909;52.516;13.564;2022-09-09T12:48:31;100544.25;;;21.99;56.92
23473;BME280;11909;52.516;13.564;2022-09-09T12:50:59;100546.66;;;22.17;55.90
23473;BME280;11909;52.516;13.564;2022-09-09T12:53:30;100545.25;;;22.07;54.54
23473;BME280;11909;52.516;13.564;2022-09-09T12:56:01;100540.03;;;22.05;55.81
23473;BME280;11909;52.516;13.564;2022-09-09T12:58:29;100539.84;;;21.98;56.77